Terminal Aerodrome Forecast
Issued by NWS

Home | Current Version | Previous Version | Text Only | Print | Product List | Glossary On
Versions: 1 2 3 4 5 6 7 8 9 10 11 12 13 14 15 16 17 18 19 20 21 22 23 24 25 26 27 28 29 30 31 32 33
000
FTUS41 KBOX 251728
TAFBED
TAF
KBED 251728Z 2518/2618 28008KT P6SM FEW050
     FM252300 23006KT P6SM FEW250
     FM260800 00000KT P6SM FEW200
     FM261300 23006KT P6SM FEW200
     FM261700 22010G17KT P6SM FEW130=

USA.gov is the U.S. government's official web portal to all federal, state and local government web resources and services.